Time;durP1;ratioP1;P1;durP2;ratioP2;P2;SDS_P1;SDS_P2;PMS_P1;PMS_P2;Temp;Humidity;BMP_temperature;BMP_pressure;BME280_temperature;BME280_humidity;BME280_pressure;Samples;Min_cycle;Max_cycle;Signal;HPM_P1;HPM_P2
2020/12/16 00:02:11;;;;;;;7.40;4.57;;;;;;;1.68;80.59;99024.61;261293;1101;23398;-77
2020/12/16 00:07:13;;;;;;;8.60;4.40;;;;;;;1.68;80.94;99018.53;261315;1101;23405;-77
2020/12/16 00:12:15;;;;;;;7.07;4.37;;;;;;;1.64;80.95;99015.52;261275;1101;23354;-76
2020/12/16 00:17:18;;;;;;;6.40;4.13;;;;;;;1.62;81.43;99032.61;261276;1101;23420;-78
2020/12/16 00:22:22;;;;;;;7.13;3.63;;;;;;;1.61;81.06;99025.71;261313;1101;23420;-77
2020/12/16 00:27:24;;;;;;;6.55;4.05;;;;;;;1.60;80.96;99024.91;261245;1101;27258;-77
2020/12/16 00:32:27;;;;;;;8.27;4.10;;;;;;;1.60;80.87;99029.41;261306;1101;23407;-76
2020/12/16 00:37:29;;;;;;;4.80;2.80;;;;;;;1.58;81.56;99011.14;261238;1102;23365;-77
2020/12/16 00:42:32;;;;;;;6.37;3.90;;;;;;;1.57;81.25;99029.83;261522;1102;23347;-76
2020/12/16 00:47:37;;;;;;;10.33;5.10;;;;;;;1.57;81.58;99037.75;261728;1101;23353;-76
2020/12/16 00:52:39;;;;;;;7.30;4.50;;;;;;;1.58;81.70;99032.27;261261;1101;23571;-75
2020/12/16 00:57:45;;;;;;;11.30;5.50;;;;;;;1.61;80.92;99033.63;261558;1101;23412;-78
2020/12/16 01:02:48;;;;;;;6.67;4.63;;;;;;;1.62;81.55;99038.69;261546;1102;23361;-77
2020/12/16 01:07:57;;;;;;;6.80;4.47;;;;;;;1.64;81.37;99049.06;261612;1101;23414;-76
2020/12/16 01:12:59;;;;;;;7.40;4.37;;;;;;;1.62;80.68;99051.89;261361;1101;23343;-77
2020/12/16 01:18:01;;;;;;;7.70;4.27;;;;;;;1.60;81.57;99055.81;261374;1101;23432;-75
2020/12/16 01:23:12;;;;;;;7.17;4.13;;;;;;;1.60;81.54;99055.81;261408;1103;23366;-77
2020/12/16 01:28:14;;;;;;;7.10;3.63;;;;;;;1.61;81.18;99063.51;261530;1101;23365;-77
2020/12/16 01:33:25;;;;;;;6.97;4.20;;;;;;;1.63;81.13;99056.16;261651;1101;23411;-77
2020/12/16 01:38:36;;;;;;;7.30;4.27;;;;;;;1.67;81.03;99065.25;261640;1100;23361;-77
2020/12/16 01:43:39;;;;;;;6.20;3.95;;;;;;;1.68;81.28;99069.51;261560;1101;23419;-77
2020/12/16 01:48:45;;;;;;;7.30;4.75;;;;;;;1.70;81.08;99066.64;261597;1101;23391;-77
2020/12/16 01:53:48;;;;;;;5.45;3.75;;;;;;;1.71;81.01;99070.91;261583;1101;23357;-76
2020/12/16 01:58:53;;;;;;;8.20;4.95;;;;;;;1.69;80.92;99076.41;261850;1102;26937;-76
2020/12/16 02:04:03;;;;;;;5.57;3.20;;;;;;;1.66;80.85;99070.75;261484;1101;23411;-76
2020/12/16 02:09:10;;;;;;;10.03;4.57;;;;;;;1.65;81.35;99082.34;261273;1101;23318;-77
2020/12/16 02:14:24;;;;;;;8.23;5.10;;;;;;;1.66;81.19;99070.75;261348;1101;23504;-77
2020/12/16 02:19:37;;;;;;;8.25;4.70;;;;;;;1.66;81.64;99062.83;261787;1101;23816;-76
2020/12/16 02:25:04;;;;;;;7.33;3.97;;;;;;;1.67;81.70;99069.73;261608;1101;23400;-78
2020/12/16 02:30:12;;;;;;;7.17;4.47;;;;;;;1.67;81.60;99067.09;261903;1102;23421;-76
2020/12/16 02:35:47;;;;;;;6.67;4.43;;;;;;;1.66;80.93;99066.27;261359;1101;23546;-76
2020/12/16 02:40:51;;;;;;;6.80;4.50;;;;;;;1.70;81.12;99079.84;261642;1101;23559;-77
2020/12/16 02:45:53;;;;;;;8.30;4.80;;;;;;;1.73;81.84;99065.39;261008;1104;23427;-77
2020/12/16 02:50:57;;;;;;;6.27;4.40;;;;;;;1.74;81.27;99075.73;261405;1101;23457;-78
2020/12/16 02:56:00;;;;;;;9.30;5.00;;;;;;;1.76;81.04;99076.30;261279;1101;26424;-75
2020/12/16 03:01:13;;;;;;;7.00;4.30;;;;;;;1.81;81.39;99079.09;261399;1101;23420;-77
2020/12/16 03:06:35;;;;;;;6.53;4.23;;;;;;;1.83;81.65;99071.77;261245;1101;23993;-77
2020/12/16 03:11:44;;;;;;;7.57;4.77;;;;;;;1.86;81.33;99073.95;261390;1101;23353;-76
2020/12/16 03:16:48;;;;;;;6.50;3.93;;;;;;;1.87;80.85;99088.78;261784;1101;23408;-77
2020/12/16 03:21:56;;;;;;;7.03;4.13;;;;;;;1.88;81.27;99079.80;261565;1101;23408;-77
2020/12/16 03:27:09;;;;;;;9.85;5.60;;;;;;;1.90;81.66;99087.50;261591;1101;23353;-77
2020/12/16 03:32:18;;;;;;;9.67;5.07;;;;;;;1.93;80.98;99096.83;261817;1101;23490;-77
2020/12/16 03:37:38;;;;;;;7.80;4.83;;;;;;;1.92;81.07;99089.92;261580;1101;23350;-77
2020/12/16 03:42:41;;;;;;;8.33;4.90;;;;;;;1.95;81.59;99086.85;261674;1101;23407;-76
2020/12/16 03:47:48;;;;;;;7.43;4.57;;;;;;;1.97;80.80;99092.70;262050;1101;23408;-77
2020/12/16 03:52:52;;;;;;;8.90;4.83;;;;;;;1.97;81.43;99092.70;261371;1101;23372;-77
2020/12/16 03:58:13;;;;;;;8.27;4.67;;;;;;;1.95;81.40;99100.86;261400;1101;23482;-77
2020/12/16 04:03:43;;;;;;;9.10;5.50;;;;;;;1.93;81.04;99104.75;261642;1101;23558;-77
2020/12/16 04:08:58;;;;;;;7.57;4.30;;;;;;;1.91;80.88;99104.18;261366;1101;23358;-76
2020/12/16 04:14:09;;;;;;;8.40;4.95;;;;;;;1.82;81.09;99112.41;261835;1101;23421;-76
2020/12/16 04:19:13;;;;;;;8.47;5.23;;;;;;;1.78;81.03;99107.80;261390;1101;23365;-77
2020/12/16 04:24:18;;;;;;;9.70;5.23;;;;;;;1.75;80.89;99111.69;261510;1101;24922;-77
2020/12/16 04:29:39;;;;;;;10.80;5.53;;;;;;;1.73;81.27;99110.30;261661;1102;23407;-77
2020/12/16 04:34:43;;;;;;;10.33;5.20;;;;;;;1.70;81.49;99109.70;262006;1101;23501;-76
2020/12/16 04:39:45;;;;;;;10.50;5.90;;;;;;;1.64;80.66;99113.23;261549;1101;23520;-76
2020/12/16 04:44:49;;;;;;;9.93;5.33;;;;;;;1.57;81.17;99114.33;261501;1101;23353;-77
2020/12/16 04:49:55;;;;;;;11.00;6.17;;;;;;;1.53;81.00;99125.34;261362;1101;23426;-77
2020/12/16 04:54:59;;;;;;;14.30;6.87;;;;;;;1.50;81.60;99127.62;261334;1101;23565;-76
2020/12/16 05:00:07;;;;;;;10.33;6.17;;;;;;;1.49;81.53;99128.64;261423;1101;23419;-76
2020/12/16 05:05:34;;;;;;;10.17;5.77;;;;;;;1.48;81.89;99134.94;261363;1101;23457;-77
2020/12/16 05:10:39;;;;;;;9.40;5.37;;;;;;;1.50;81.86;99146.11;261395;1101;26482;-76
2020/12/16 05:15:45;;;;;;;10.50;5.43;;;;;;;1.48;81.44;99138.41;261396;1101;23552;-76
2020/12/16 05:20:49;;;;;;;12.30;6.30;;;;;;;1.46;81.33;99129.89;261663;1101;23457;-76
2020/12/16 05:26:01;;;;;;;11.97;6.43;;;;;;;1.46;82.15;99145.73;261575;1101;23558;-77
2020/12/16 05:31:05;;;;;;;14.20;7.17;;;;;;;1.44;81.42;99141.69;261270;1101;23456;-77
2020/12/16 05:36:12;;;;;;;12.50;7.57;;;;;;;1.39;81.74;99158.19;261600;1101;23408;-77
2020/12/16 05:41:15;;;;;;;14.67;8.40;;;;;;;1.33;81.43;99156.41;261706;1101;23460;-77
2020/12/16 05:46:25;;;;;;;12.10;6.45;;;;;;;1.30;82.22;99157.67;261304;1101;23574;-77
2020/12/16 05:51:27;;;;;;;12.28;6.85;;;;;;;1.23;81.88;99158.75;261347;1101;26811;-76
2020/12/16 05:56:29;;;;;;;12.85;7.60;;;;;;;1.17;81.85;99160.43;261366;1101;26452;-76
2020/12/16 06:01:31;;;;;;;11.10;6.87;;;;;;;1.14;82.25;99174.06;261562;1101;23421;-77
2020/12/16 06:06:35;;;;;;;12.57;6.63;;;;;;;1.10;82.33;99176.31;261631;1102;23543;-77
2020/12/16 06:11:44;;;;;;;12.57;6.77;;;;;;;1.08;82.43;99175.73;261260;1101;23493;-77
2020/12/16 06:16:48;;;;;;;12.70;7.07;;;;;;;1.07;82.87;99174.11;261558;1101;26440;-76
2020/12/16 06:21:55;;;;;;;14.00;7.53;;;;;;;1.03;82.37;99167.65;261335;1102;23408;-77
2020/12/16 06:27:07;;;;;;;15.27;7.87;;;;;;;1.01;82.01;99185.55;261525;1101;23916;-77
2020/12/16 06:32:19;;;;;;;16.47;8.63;;;;;;;1.00;82.93;99189.99;261655;1101;23365;-76
2020/12/16 06:37:21;;;;;;;16.47;8.90;;;;;;;1.01;82.73;99196.09;261570;1101;26517;-77
2020/12/16 06:42:34;;;;;;;17.10;8.33;;;;;;;1.04;83.00;99206.21;261454;1101;23427;-78
2020/12/16 06:47:36;;;;;;;13.87;7.90;;;;;;;1.07;82.57;99192.59;261288;1101;23578;-78
2020/12/16 06:52:40;;;;;;;13.87;6.97;;;;;;;1.11;82.78;99199.05;261774;1101;23365;-78
2020/12/16 06:57:50;;;;;;;14.03;8.07;;;;;;;1.15;83.05;99202.88;261821;1101;23552;-78
2020/12/16 07:02:52;;;;;;;12.03;7.15;;;;;;;1.19;82.21;99206.70;262768;1100;23505;-79
2020/12/16 07:07:56;;;;;;;12.53;7.00;;;;;;;1.26;82.34;99208.45;262134;1101;23374;-77
2020/12/16 07:13:16;;;;;;;14.33;6.83;;;;;;;1.33;82.91;99217.13;261763;1097;23402;-77
2020/12/16 07:18:19;;;;;;;;;;;;;;;1.40;82.07;99206.51;261809;1102;23350;-77
2020/12/16 07:23:27;;;;;;;17.27;7.87;;;;;;;1.46;82.64;99218.86;262152;1101;21510;-77
2020/12/16 07:28:35;;;;;;;11.73;7.03;;;;;;;1.47;82.37;99213.36;262109;1101;23392;-78
2020/12/16 07:33:38;;;;;;;12.93;6.43;;;;;;;1.50;82.52;99215.55;262298;1101;23425;-78
2020/12/16 07:38:55;;;;;;;14.50;6.87;;;;;;;1.53;81.66;99223.03;261752;1101;23362;-78
2020/12/16 07:43:59;;;;;;;13.67;7.13;;;;;;;1.59;82.02;99223.20;261721;1095;23407;-77
2020/12/16 07:49:01;;;;;;;14.87;7.73;;;;;;;1.70;82.27;99225.12;261912;1101;23491;-75
2020/12/16 07:54:04;;;;;;;16.83;8.20;;;;;;;1.78;82.14;99232.76;261833;1101;23365;-76
2020/12/16 07:59:11;;;;;;;18.13;8.90;;;;;;;1.89;81.91;99241.80;261904;1101;23360;-76
2020/12/16 08:04:16;;;;;;;18.20;8.73;;;;;;;2.03;80.98;99240.61;262008;1101;23831;-77
2020/12/16 08:09:21;;;;;;;18.07;8.70;;;;;;;2.18;81.59;99250.82;261873;1101;23392;-77
2020/12/16 08:14:23;;;;;;;15.20;8.53;;;;;;;2.26;80.85;99251.55;261936;1101;23478;-77
2020/12/16 08:19:25;;;;;;;18.17;9.40;;;;;;;2.29;80.80;99251.09;261915;1101;23476;-78
2020/12/16 08:24:28;;;;;;;19.90;9.00;;;;;;;2.33;80.16;99254.91;261785;1101;23932;-77
2020/12/16 08:29:32;;;;;;;17.03;9.23;;;;;;;2.43;80.11;99270.25;262089;1101;23408;-78
2020/12/16 08:34:43;;;;;;;14.77;8.10;;;;;;;2.53;79.84;99273.99;261931;1101;26457;-77
2020/12/16 08:39:48;;;;;;;15.87;8.20;;;;;;;2.65;79.87;99281.97;261898;1101;26519;-77
2020/12/16 08:44:51;;;;;;;14.33;8.77;;;;;;;2.80;80.16;99300.09;261688;1101;23405;-76
2020/12/16 08:49:54;;;;;;;12.85;7.60;;;;;;;2.90;79.69;99303.00;262023;1101;23907;-76
2020/12/16 08:55:13;;;;;;;14.25;8.15;;;;;;;3.18;79.64;99293.64;262247;1101;23404;-76
2020/12/16 09:00:16;;;;;;;12.40;7.70;;;;;;;3.36;78.78;99294.62;261982;1103;23559;-75
2020/12/16 09:05:29;;;;;;;14.20;8.07;;;;;;;3.50;78.52;99297.83;262437;1097;23455;-76
2020/12/16 09:10:35;;;;;;;14.07;8.67;;;;;;;3.57;78.32;99299.34;263002;1102;24580;-76
2020/12/16 09:15:49;;;;;;;13.03;7.00;;;;;;;3.68;77.96;99297.75;263747;1102;25005;-75
2020/12/16 09:20:51;;;;;;;13.20;8.30;;;;;;;3.82;78.05;99308.11;261861;1101;24110;-74
2020/12/16 09:25:58;;;;;;;12.33;8.07;;;;;;;3.84;77.23;99314.00;261576;1101;29062;-74
2020/12/16 09:31:19;;;;;;;13.55;7.25;;;;;;;3.86;76.82;99310.09;261828;1101;23515;-74
2020/12/16 09:36:26;;;;;;;14.57;8.80;;;;;;;4.04;76.92;99305.69;261696;1101;23392;-75
2020/12/16 09:41:43;;;;;;;13.77;8.47;;;;;;;4.36;76.35;99308.73;261800;1102;23358;-77
2020/12/16 09:46:45;;;;;;;12.75;8.15;;;;;;;4.63;76.83;99302.89;262794;1101;23592;-78
2020/12/16 09:51:47;;;;;;;15.43;9.17;;;;;;;4.79;75.27;99301.35;262686;1103;23421;-76
2020/12/16 09:56:49;;;;;;;16.03;8.27;;;;;;;4.72;75.33;99301.48;262828;1097;23358;-77
2020/12/16 10:01:52;;;;;;;14.43;8.07;;;;;;;4.76;74.58;99307.14;263315;1097;23427;-77
2020/12/16 10:06:55;;;;;;;13.27;8.60;;;;;;;4.73;75.12;99303.11;262886;1101;23948;-77
2020/12/16 10:11:57;;;;;;;12.87;7.80;;;;;;;4.65;73.67;99295.52;263271;1101;23396;-76
2020/12/16 10:16:59;;;;;;;13.97;8.17;;;;;;;4.66;73.69;99298.97;263121;1101;23425;-76
2020/12/16 10:22:01;;;;;;;13.47;8.23;;;;;;;4.62;73.35;99299.45;262966;1101;23351;-77
2020/12/16 10:27:04;;;;;;;13.60;7.43;;;;;;;4.59;73.24;99299.13;262628;1101;24945;-76
2020/12/16 10:32:09;;;;;;;13.80;7.95;;;;;;;4.53;73.46;99308.81;263107;1101;23420;-77
2020/12/16 10:37:20;;;;;;;14.13;8.07;;;;;;;4.56;73.17;99299.58;262843;1102;23320;-76
2020/12/16 10:42:23;;;;;;;13.70;7.83;;;;;;;4.59;73.85;99301.78;263035;1101;23392;-76
2020/12/16 10:47:26;;;;;;;12.93;7.70;;;;;;;4.58;74.03;99300.95;262286;1101;23369;-77
2020/12/16 10:52:29;;;;;;;13.53;7.70;;;;;;;4.52;73.24;99301.09;262061;1101;23726;-77
2020/12/16 10:57:31;;;;;;;14.70;7.97;;;;;;;4.46;73.79;99300.18;262342;1101;23354;-78
2020/12/16 11:02:33;;;;;;;15.35;8.30;;;;;;;4.50;73.78;99300.53;263012;1101;23809;-76
2020/12/16 11:07:35;;;;;;;15.60;8.90;;;;;;;4.53;74.13;99297.40;262998;1101;23532;-76
2020/12/16 11:12:37;;;;;;;19.13;9.50;;;;;;;4.55;73.87;99285.52;268775;1101;23248;-76
2020/12/16 11:17:39;;;;;;;12.30;8.00;;;;;;;4.66;73.85;99291.00;262686;1101;23332;-77
2020/12/16 11:22:41;;;;;;;15.40;8.60;;;;;;;4.74;73.57;99296.77;262397;1096;23414;-77
2020/12/16 11:27:43;;;;;;;16.43;9.10;;;;;;;4.82;73.64;99281.50;262463;1101;23411;-76
2020/12/16 11:32:48;;;;;;;17.20;9.15;;;;;;;4.91;73.94;99283.53;262504;1101;23526;-77
2020/12/16 11:37:50;;;;;;;19.03;9.93;;;;;;;4.93;73.82;99281.43;262617;1101;23387;-76
2020/12/16 11:42:52;;;;;;;16.63;9.83;;;;;;;4.87;73.44;99292.19;262402;1101;23419;-75
2020/12/16 11:47:54;;;;;;;17.40;9.30;;;;;;;4.84;73.72;99290.84;262206;1102;23958;-76
2020/12/16 11:52:56;;;;;;;14.27;7.77;;;;;;;4.85;74.30;99299.59;262364;1102;23354;-77
2020/12/16 11:57:59;;;;;;;16.23;8.77;;;;;;;4.80;73.94;99295.02;262232;1101;23420;-77
2020/12/16 12:03:01;;;;;;;14.70;8.13;;;;;;;4.71;73.60;99285.80;262239;1101;23508;-75
2020/12/16 12:08:06;;;;;;;14.87;8.97;;;;;;;4.67;73.83;99285.45;262572;1102;26800;-76
2020/12/16 12:13:08;;;;;;;16.60;8.55;;;;;;;4.70;73.93;99292.14;262268;1101;23912;-78
2020/12/16 12:18:10;;;;;;;15.50;8.70;;;;;;;4.67;73.71;99288.11;261975;1101;23360;-77
2020/12/16 12:23:14;;;;;;;17.43;8.67;;;;;;;4.64;73.78;99293.90;262401;1102;23315;-76
2020/12/16 12:28:19;;;;;;;13.17;8.27;;;;;;;4.65;73.78;99281.45;262567;1102;23559;-76
2020/12/16 12:33:21;;;;;;;15.60;8.33;;;;;;;4.68;73.80;99284.42;262758;1101;23361;-77
2020/12/16 12:38:23;;;;;;;16.70;9.27;;;;;;;4.71;73.94;99275.19;262756;1101;23805;-76
2020/12/16 12:43:25;;;;;;;14.63;7.50;;;;;;;4.75;74.32;99273.67;262439;1101;23499;-76
2020/12/16 12:48:27;;;;;;;19.40;10.90;;;;;;;4.76;74.11;99276.09;262509;1101;23405;-76
2020/12/16 12:53:30;;;;;;;22.77;10.87;;;;;;;4.82;74.11;99282.30;262582;1102;23543;-76
2020/12/16 12:58:32;;;;;;;18.70;9.87;;;;;;;4.82;73.59;99287.60;262734;1102;23482;-76
2020/12/16 13:03:35;;;;;;;24.73;11.57;;;;;;;4.74;73.09;99278.19;262495;1101;23403;-76
2020/12/16 13:08:37;;;;;;;19.93;9.30;;;;;;;4.74;73.81;99283.49;262067;1102;23356;-76
2020/12/16 13:13:39;;;;;;;20.67;9.13;;;;;;;4.70;73.74;99282.36;262131;1101;23906;-75
2020/12/16 13:18:42;;;;;;;16.53;9.63;;;;;;;4.63;73.61;99286.97;262495;1101;24913;-76
2020/12/16 13:23:46;;;;;;;16.20;8.80;;;;;;;4.58;73.74;99284.24;262529;1100;23390;-76
2020/12/16 13:28:54;;;;;;;16.87;8.50;;;;;;;4.54;73.67;99299.02;262425;1101;23431;-76
2020/12/16 13:33:57;;;;;;;20.23;9.97;;;;;;;4.57;74.14;99301.99;262281;1101;23809;-76
2020/12/16 13:39:01;;;;;;;14.67;8.63;;;;;;;4.60;73.98;99304.20;262336;1101;23437;-76
2020/12/16 13:44:04;;;;;;;17.23;8.87;;;;;;;4.57;74.15;99299.34;261488;1101;24087;-76
2020/12/16 13:49:09;;;;;;;17.63;10.10;;;;;;;4.50;74.48;99303.98;261555;1101;23405;-75
2020/12/16 13:54:11;;;;;;;18.75;10.15;;;;;;;4.52;74.21;99296.61;261532;1102;23372;-76
2020/12/16 13:59:13;;;;;;;18.55;10.40;;;;;;;4.47;74.38;99304.45;261611;1102;23407;-76
2020/12/16 14:04:20;;;;;;;20.80;10.25;;;;;;;4.44;74.18;99312.89;261905;1101;23559;-76
2020/12/16 14:09:24;;;;;;;15.40;9.43;;;;;;;4.40;74.03;99309.88;261973;1101;23365;-76
2020/12/16 14:14:27;;;;;;;23.23;12.93;;;;;;;4.36;73.93;99314.05;261642;1101;23559;-76
2020/12/16 14:19:31;;;;;;;23.87;13.30;;;;;;;4.33;74.17;99306.56;261762;1101;23488;-76
2020/12/16 14:24:41;;;;;;;23.93;12.73;;;;;;;4.29;74.19;99316.02;262067;1097;23353;-76
2020/12/16 14:29:45;;;;;;;27.07;13.33;;;;;;;4.24;74.39;99316.73;261475;1103;24489;-75
2020/12/16 14:34:47;;;;;;;25.35;13.30;;;;;;;4.21;74.51;99308.42;261638;1102;23559;-76
2020/12/16 14:39:49;;;;;;;27.63;12.83;;;;;;;4.17;74.91;99301.97;261754;1101;23365;-77
2020/12/16 14:44:52;;;;;;;31.70;15.67;;;;;;;4.17;74.65;99307.28;261645;1102;23356;-76
2020/12/16 14:49:54;;;;;;;28.70;14.30;;;;;;;4.18;74.72;99303.59;262151;1101;23941;-77
2020/12/16 14:54:59;;;;;;;34.00;15.90;;;;;;;4.14;74.87;99311.22;261899;1102;23364;-78
2020/12/16 15:00:04;;;;;;;41.35;19.40;;;;;;;4.09;74.57;99297.84;262043;1101;23366;-78
2020/12/16 15:05:11;;;;;;;29.30;14.60;;;;;;;4.10;74.65;99300.27;262514;1101;23525;-78
2020/12/16 15:10:15;;;;;;;31.70;17.10;;;;;;;4.09;74.53;99308.45;262326;1097;23848;-78
2020/12/16 15:15:18;;;;;;;37.80;18.10;;;;;;;4.08;75.15;99309.48;262425;1101;23427;-79
2020/12/16 15:20:21;;;;;;;36.77;17.13;;;;;;;4.10;74.92;99318.03;261970;1096;23520;-78
2020/12/16 15:25:26;;;;;;;24.07;12.77;;;;;;;4.11;74.70;99319.62;261622;1097;23824;-78
2020/12/16 15:30:28;;;;;;;22.30;11.67;;;;;;;4.08;74.97;99328.84;261845;1101;26991;-79
2020/12/16 15:35:30;;;;;;;22.03;11.33;;;;;;;4.06;74.83;99325.63;262349;1096;23351;-78
2020/12/16 15:40:35;;;;;;;27.50;13.00;;;;;;;4.07;74.73;99331.72;262297;1101;26575;-78
2020/12/16 15:45:37;;;;;;;21.93;12.40;;;;;;;4.07;74.94;99342.33;261628;1103;23369;-78
2020/12/16 15:50:39;;;;;;;18.47;9.80;;;;;;;4.04;74.77;99346.28;262010;1097;23446;-79
2020/12/16 15:55:42;;;;;;;21.30;12.10;;;;;;;4.01;74.67;99351.22;262124;1101;23416;-78
2020/12/16 16:00:46;;;;;;;20.03;10.70;;;;;;;4.02;75.11;99344.89;261677;1101;23396;-78
2020/12/16 16:05:48;;;;;;;22.90;12.37;;;;;;;4.01;74.77;99345.92;261656;1101;26972;-78
2020/12/16 16:10:50;;;;;;;29.30;14.60;;;;;;;4.00;75.45;99344.30;261663;1102;23372;-77
2020/12/16 16:15:53;;;;;;;27.20;14.77;;;;;;;4.01;74.74;99354.67;261535;1101;23425;-77
2020/12/16 16:20:55;;;;;;;23.53;13.13;;;;;;;4.05;75.18;99355.03;261572;1101;23427;-77
2020/12/16 16:25:57;;;;;;;27.63;16.17;;;;;;;4.02;75.32;99363.45;261494;1101;26163;-79
2020/12/16 16:31:02;;;;;;;36.30;18.05;;;;;;;4.01;75.10;99365.27;261873;1101;23377;-78
2020/12/16 16:36:08;;;;;;;37.25;19.50;;;;;;;4.04;75.26;99367.48;261307;1104;23591;-79
2020/12/16 16:41:10;;;;;;;43.35;22.00;;;;;;;4.07;75.01;99368.84;261601;1101;23462;-79
2020/12/16 16:46:12;;;;;;;40.65;21.70;;;;;;;4.06;75.46;99383.16;261850;1101;23576;-79
2020/12/16 16:51:14;;;;;;;43.10;23.53;;;;;;;4.04;75.24;99379.92;261707;1101;23406;-78
2020/12/16 16:56:20;;;;;;;53.17;27.00;;;;;;;4.04;75.29;99387.88;261504;1101;23521;-78
2020/12/16 17:01:27;;;;;;;63.40;30.33;;;;;;;4.04;75.32;99393.17;261685;1101;23499;-78
2020/12/16 17:06:29;;;;;;;61.87;29.57;;;;;;;4.15;75.62;99394.22;261712;1103;24996;-79
2020/12/16 17:11:39;;;;;;;57.93;28.93;;;;;;;4.16;74.98;99393.19;261654;1101;23354;-78
2020/12/16 17:16:41;;;;;;;59.00;29.15;;;;;;;4.10;74.96;99400.23;261663;1101;23384;-78
2020/12/16 17:21:43;;;;;;;58.53;28.87;;;;;;;4.03;75.18;99402.98;261700;1101;23379;-78
2020/12/16 17:26:46;;;;;;;62.07;29.97;;;;;;;4.01;75.40;99404.24;261329;1101;23404;-77
2020/12/16 17:31:55;;;;;;;61.35;30.05;;;;;;;4.02;75.16;99408.52;261648;1101;23902;-78
2020/12/16 17:36:57;;;;;;;58.87;30.37;;;;;;;4.12;75.99;99419.34;261363;1101;23551;-78
2020/12/16 17:41:59;;;;;;;52.40;27.53;;;;;;;4.16;75.63;99417.86;261873;1101;23412;-79
2020/12/16 17:47:08;;;;;;;57.90;28.95;;;;;;;4.17;75.80;99422.13;261635;1101;23407;-78
2020/12/16 17:52:10;;;;;;;54.20;25.57;;;;;;;4.16;75.62;99430.32;261957;1101;23367;-78
2020/12/16 17:57:14;;;;;;;57.07;28.47;;;;;;;4.13;74.95;99430.75;261643;1101;23944;-78
2020/12/16 18:02:16;;;;;;;55.87;27.57;;;;;;;4.17;75.48;99437.22;261931;1101;23391;-77
2020/12/16 18:07:18;;;;;;;49.13;24.43;;;;;;;4.18;75.40;99436.19;261430;1101;23546;-79
2020/12/16 18:12:20;;;;;;;49.43;24.97;;;;;;;4.17;75.04;99432.73;261406;1101;23431;-79
2020/12/16 18:17:22;;;;;;;50.57;25.53;;;;;;;4.14;75.36;99437.68;261676;1101;23559;-78
2020/12/16 18:22:24;;;;;;;52.85;28.45;;;;;;;4.12;75.25;99429.95;261671;1101;23404;-78
2020/12/16 18:27:28;;;;;;;50.75;26.20;;;;;;;4.13;75.05;99430.75;261952;1101;23362;-77
2020/12/16 18:32:31;;;;;;;67.73;33.40;;;;;;;4.16;75.42;99435.63;261995;1102;23362;-78
2020/12/16 18:37:36;;;;;;;73.87;37.97;;;;;;;4.20;75.49;99437.58;261602;1101;23350;-77
2020/12/16 18:42:48;;;;;;;85.23;44.87;;;;;;;4.23;75.79;99449.58;261412;1101;23405;-78
2020/12/16 18:47:51;;;;;;;75.93;38.53;;;;;;;4.24;76.03;99441.39;261545;1101;23408;-79
2020/12/16 18:52:53;;;;;;;80.77;39.53;;;;;;;4.25;75.64;99440.36;262009;1101;23353;-78
2020/12/16 18:58:00;;;;;;;89.30;39.80;;;;;;;4.25;75.71;99431.58;261550;1102;23358;-78
2020/12/16 19:03:05;;;;;;;94.75;42.40;;;;;;;4.31;75.98;99437.80;261553;1100;23407;-78
2020/12/16 19:08:07;;;;;;;83.80;39.27;;;;;;;4.36;75.92;99443.23;261681;1101;23370;-78
2020/12/16 19:13:10;;;;;;;77.63;36.43;;;;;;;4.31;75.82;99446.58;261678;1101;23341;-79
2020/12/16 19:18:14;;;;;;;74.50;34.50;;;;;;;4.27;75.52;99448.88;261621;1101;23558;-78
2020/12/16 19:23:19;;;;;;;86.73;38.50;;;;;;;4.23;75.16;99444.27;261802;1101;23392;-78
2020/12/16 19:28:21;;;;;;;102.00;42.25;;;;;;;4.24;75.24;99451.17;261883;1101;23558;-78
2020/12/16 19:33:24;;;;;;;101.07;44.37;;;;;;;4.27;75.67;99450.73;261867;1103;23500;-77
2020/12/16 19:38:26;;;;;;;93.70;43.25;;;;;;;4.31;75.91;99448.41;261617;1101;23420;-78
2020/12/16 19:43:29;;;;;;;86.47;41.90;;;;;;;4.31;75.82;99453.72;261517;1101;23354;-78
2020/12/16 19:48:31;;;;;;;90.83;42.23;;;;;;;4.33;75.86;99460.41;261576;1101;23418;-78
2020/12/16 19:53:34;;;;;;;75.17;35.07;;;;;;;4.35;75.63;99461.00;261789;1101;23526;-77
2020/12/16 19:58:39;;;;;;;94.43;42.43;;;;;;;4.29;75.41;99472.52;261458;1101;23507;-78
2020/12/16 20:03:42;;;;;;;102.90;44.73;;;;;;;4.23;75.13;99474.23;261448;1102;23335;-78
2020/12/16 20:08:45;;;;;;;102.37;47.17;;;;;;;4.26;75.62;99473.78;261488;1101;23517;-78
2020/12/16 20:13:49;;;;;;;98.07;46.07;;;;;;;4.28;76.00;99477.02;261358;1101;23851;-78
2020/12/16 20:18:51;;;;;;;100.05;46.35;;;;;;;4.32;75.87;99472.05;261697;1101;23354;-78
2020/12/16 20:23:53;;;;;;;87.65;44.05;;;;;;;4.32;76.04;99465.95;261721;1101;23365;-78
2020/12/16 20:28:55;;;;;;;93.45;43.20;;;;;;;4.32;75.80;99468.59;261763;1101;23495;-79
2020/12/16 20:34:00;;;;;;;88.50;41.25;;;;;;;4.30;75.44;99465.38;261843;1101;23350;-77
2020/12/16 20:39:11;;;;;;;88.70;42.03;;;;;;;4.33;75.87;99472.88;261385;1101;23464;-79
2020/12/16 20:44:19;;;;;;;91.97;43.23;;;;;;;4.34;76.00;99469.98;261403;1101;26971;-78
2020/12/16 20:49:21;;;;;;;84.43;40.63;;;;;;;4.37;76.09;99466.08;261625;1101;23897;-78
2020/12/16 20:54:26;;;;;;;76.40;37.57;;;;;;;4.36;75.92;99469.76;261423;1101;23417;-78
2020/12/16 20:59:28;;;;;;;75.10;37.00;;;;;;;4.32;75.92;99471.25;261513;1101;23362;-79
2020/12/16 21:04:31;;;;;;;80.50;35.57;;;;;;;4.27;75.29;99467.44;261475;1102;23489;-79
2020/12/16 21:09:33;;;;;;;73.47;34.20;;;;;;;4.27;75.32;99470.09;261367;1102;23417;-78
2020/12/16 21:14:36;;;;;;;78.50;37.03;;;;;;;4.30;75.39;99475.99;261799;1101;23417;-78
2020/12/16 21:19:38;;;;;;;75.85;36.15;;;;;;;4.33;75.75;99480.83;261768;1101;23554;-78
2020/12/16 21:24:40;;;;;;;68.03;34.17;;;;;;;4.31;75.65;99483.72;261634;1101;23353;-78
2020/12/16 21:29:42;;;;;;;70.23;34.23;;;;;;;4.26;75.32;99487.03;261730;1101;23365;-78
2020/12/16 21:34:44;;;;;;;81.30;37.15;;;;;;;4.25;75.60;99485.44;261443;1101;23360;-79
2020/12/16 21:39:49;;;;;;;86.73;38.63;;;;;;;4.27;75.60;99483.36;261382;1102;23395;-78
2020/12/16 21:44:51;;;;;;;83.57;38.73;;;;;;;4.25;75.72;99481.97;261401;1101;23408;-78
2020/12/16 21:49:56;;;;;;;80.50;37.17;;;;;;;4.22;75.38;99483.23;261680;1101;23357;-78
2020/12/16 21:54:58;;;;;;;66.30;32.55;;;;;;;4.22;75.67;99483.23;261429;1101;23358;-77
2020/12/16 22:00:07;;;;;;;93.67;40.10;;;;;;;4.17;75.90;99471.69;261424;1101;23331;-78
2020/12/16 22:05:13;;;;;;;87.07;40.70;;;;;;;4.23;75.99;99484.84;261642;1101;23418;-79
2020/12/16 22:10:15;;;;;;;77.95;38.25;;;;;;;4.28;75.88;99471.72;261365;1102;23344;-78
2020/12/16 22:15:17;;;;;;;82.40;38.10;;;;;;;4.31;75.71;99475.76;261402;1101;23350;-78
2020/12/16 22:20:19;;;;;;;80.27;37.20;;;;;;;4.30;75.68;99458.22;261688;1101;23306;-79
2020/12/16 22:25:21;;;;;;;67.43;33.53;;;;;;;4.28;75.68;99469.06;261701;1101;24024;-78
2020/12/16 22:30:24;;;;;;;78.17;34.80;;;;;;;4.27;75.63;99466.64;261363;1101;23366;-78
2020/12/16 22:35:29;;;;;;;77.50;36.07;;;;;;;4.29;75.66;99469.86;261696;1102;23359;-77
2020/12/16 22:40:31;;;;;;;85.20;38.23;;;;;;;4.33;75.90;99464.92;261719;1101;23407;-78
2020/12/16 22:45:33;;;;;;;70.47;35.03;;;;;;;4.34;75.36;99464.69;261724;1101;23619;-77
2020/12/16 22:50:37;;;;;;;81.33;34.87;;;;;;;4.34;75.86;99474.47;261509;1103;23408;-78
2020/12/16 22:55:39;;;;;;;58.05;28.05;;;;;;;4.30;75.43;99468.83;261412;1101;23368;-78
2020/12/16 23:00:41;;;;;;;72.03;33.27;;;;;;;4.22;75.78;99472.61;261597;1101;23408;-78
2020/12/16 23:05:44;;;;;;;58.83;28.13;;;;;;;4.23;75.85;99473.45;261474;1102;23505;-78
2020/12/16 23:10:48;;;;;;;72.87;33.67;;;;;;;4.22;75.92;99469.97;261352;1102;23576;-78
2020/12/16 23:15:51;;;;;;;61.70;29.77;;;;;;;4.24;76.17;99464.42;261861;1101;23374;-79
2020/12/16 23:20:53;;;;;;;64.63;28.40;;;;;;;4.17;75.46;99466.39;261745;1101;23556;-77
2020/12/16 23:25:55;;;;;;;66.23;31.70;;;;;;;4.13;75.65;99473.18;261489;1102;23559;-78
2020/12/16 23:30:57;;;;;;;64.57;28.90;;;;;;;4.13;76.10;99468.70;261690;1101;23357;-79
2020/12/16 23:36:02;;;;;;;58.80;27.50;;;;;;;4.14;76.24;99470.33;261429;1101;23528;-78